createdAt,value
2022-10-01T00:01:15.809Z,74.70
2022-10-01T00:03:43.460Z,74.80
2022-10-01T00:06:15.096Z,74.80
2022-10-01T00:08:45.582Z,75.00
2022-10-01T00:11:14.254Z,74.90
2022-10-01T00:13:43.032Z,74.90
2022-10-01T00:16:12.509Z,74.90
2022-10-01T00:18:40.880Z,75.00
2022-10-01T00:21:13.940Z,75.10
2022-10-01T00:23:42.337Z,75.30
2022-10-01T00:26:17.933Z,75.10
2022-10-01T00:28:47.461Z,75.40
2022-10-01T00:31:15.759Z,75.10
2022-10-01T00:33:42.929Z,75.10
2022-10-01T00:36:10.800Z,75.10
2022-10-01T00:38:40.148Z,75.20
2022-10-01T00:41:07.646Z,75.30
2022-10-01T00:43:37.718Z,75.30
2022-10-01T00:46:25.039Z,75.50
2022-10-01T00:49:02.397Z,76.00
2022-10-01T00:51:33.131Z,76.50
2022-10-01T00:54:13.239Z,76.60
2022-10-01T00:56:41.539Z,77.40
2022-10-01T00:59:08.435Z,77.20
2022-10-01T01:01:37.711Z,77.90
2022-10-01T01:04:16.078Z,78.30
2022-10-01T01:06:46.601Z,78.40
2022-10-01T01:09:13.502Z,79.10
2022-10-01T01:12:04.286Z,79.20
2022-10-01T01:15:04.761Z,80.50
2022-10-01T01:18:02.633Z,81.60
2022-10-01T01:20:41.794Z,81.50
2022-10-01T01:23:24.798Z,81.40
2022-10-01T01:26:03.031Z,82.50
2022-10-01T01:28:37.732Z,83.00
2022-10-01T01:31:10.611Z,82.80
2022-10-01T01:33:39.382Z,83.60
2022-10-01T01:36:25.496Z,83.70
2022-10-01T01:38:57.646Z,85.30
2022-10-01T01:41:27.264Z,84.50
2022-10-01T01:43:57.497Z,84.90
2022-10-01T01:46:31.507Z,85.50
2022-10-01T01:49:00.977Z,85.80
2022-10-01T01:51:45.763Z,86.30
2022-10-01T01:54:12.539Z,87.80
2022-10-01T01:56:39.361Z,86.80
2022-10-01T01:59:06.064Z,87.30
2022-10-01T02:01:39.901Z,87.40
2022-10-01T02:04:21.810Z,88.70
2022-10-01T02:07:01.229Z,88.30
2022-10-01T02:09:36.789Z,89.00
2022-10-01T02:12:19.633Z,89.30
2022-10-01T02:15:09.161Z,90.00
2022-10-01T02:17:59.160Z,90.20
2022-10-01T02:20:33.004Z,90.20
2022-10-01T02:23:05.357Z,90.00
2022-10-01T02:25:42.889Z,90.10
2022-10-01T02:28:12.814Z,90.20
2022-10-01T02:30:42.131Z,90.20
2022-10-01T02:33:12.049Z,90.30
2022-10-01T02:35:41.353Z,90.50
2022-10-01T02:38:09.722Z,90.50
2022-10-01T02:40:41.654Z,90.70
2022-10-01T02:43:17.483Z,90.90
2022-10-01T02:45:47.385Z,91.20
2022-10-01T02:48:17.418Z,91.10
2022-10-01T02:50:53.143Z,90.90
2022-10-01T02:53:28.763Z,91.50
2022-10-01T02:55:57.824Z,91.40
2022-10-01T02:58:24.721Z,91.30
2022-10-01T03:00:52.543Z,91.20
2022-10-01T03:03:19.196Z,91.30
2022-10-01T03:05:45.880Z,91.40
2022-10-01T03:08:12.582Z,91.50
2022-10-01T03:10:42.449Z,91.50
2022-10-01T03:13:12.641Z,91.60
2022-10-01T03:15:39.315Z,91.70
2022-10-01T03:18:06.024Z,91.80
2022-10-01T03:20:32.704Z,91.90
2022-10-01T03:22:59.348Z,92.00
2022-10-01T03:25:26.259Z,92.10
2022-10-01T03:27:53.317Z,92.10
2022-10-01T03:30:20.340Z,92.30
2022-10-01T03:32:47.001Z,92.40
2022-10-01T03:35:13.704Z,92.50
2022-10-01T03:37:40.377Z,92.50
2022-10-01T03:40:07.429Z,92.60
2022-10-01T03:42:34.070Z,92.50
2022-10-01T03:45:00.700Z,92.60
2022-10-01T03:47:27.361Z,92.60
2022-10-01T03:49:54.024Z,92.80
2022-10-01T03:52:21.005Z,92.90
2022-10-01T03:54:47.737Z,93.10
2022-10-01T03:57:14.585Z,93.20
2022-10-01T03:59:42.116Z,93.30
2022-10-01T04:02:09.137Z,93.50
2022-10-01T04:04:36.181Z,93.60
2022-10-01T04:07:02.948Z,93.70
2022-10-01T04:09:29.694Z,93.80
2022-10-01T04:11:56.382Z,93.90
2022-10-01T04:14:23.108Z,94.00
2022-10-01T04:16:52.223Z,94.10
2022-10-01T04:19:19.632Z,94.20
2022-10-01T04:21:46.400Z,94.30
2022-10-01T04:24:13.064Z,94.30
2022-10-01T04:26:39.783Z,94.40
2022-10-01T04:29:06.493Z,94.50
2022-10-01T04:31:35.226Z,94.60
2022-10-01T04:34:03.243Z,94.80
2022-10-01T04:36:29.939Z,94.80
2022-10-01T04:39:01.089Z,94.90
2022-10-01T04:41:30.682Z,95.00
2022-10-01T04:44:01.130Z,95.10
2022-10-01T04:46:30.150Z,95.50
2022-10-01T04:48:57.189Z,95.30
2022-10-01T04:51:24.004Z,95.30
2022-10-01T04:53:50.826Z,95.40
2022-10-01T04:56:17.501Z,95.40
2022-10-01T04:58:44.131Z,95.60
2022-10-01T05:01:10.899Z,95.50
2022-10-01T05:03:37.594Z,95.60
2022-10-01T05:06:04.439Z,95.70
2022-10-01T05:08:31.135Z,95.80
2022-10-01T05:11:00.268Z,95.80
2022-10-01T05:13:29.887Z,95.90
2022-10-01T05:15:56.657Z,95.90
2022-10-01T05:18:23.409Z,96.00
2022-10-01T05:20:50.067Z,96.00
2022-10-01T05:23:16.742Z,96.10
2022-10-01T05:25:46.698Z,96.10
2022-10-01T05:28:16.037Z,96.20
2022-10-01T05:30:46.658Z,96.20
2022-10-01T05:33:13.284Z,96.30
2022-10-01T05:35:41.136Z,96.30
2022-10-01T05:38:07.885Z,96.40
2022-10-01T05:40:34.603Z,96.40
2022-10-01T05:43:04.196Z,96.40
2022-10-01T05:45:32.460Z,96.50
2022-10-01T05:48:01.383Z,96.50
2022-10-01T05:50:32.896Z,96.60
2022-10-01T05:53:00.907Z,96.60
2022-10-01T05:55:33.236Z,96.70
2022-10-01T05:58:05.384Z,96.70
2022-10-01T06:00:33.290Z,96.80
2022-10-01T06:03:01.561Z,96.80
2022-10-01T06:05:29.923Z,96.90
2022-10-01T06:07:56.989Z,96.90
2022-10-01T06:10:24.916Z,96.90
2022-10-01T06:12:52.021Z,97.00
2022-10-01T06:15:19.030Z,97.00
2022-10-01T06:17:45.792Z,97.40
2022-10-01T06:20:20.509Z,97.10
2022-10-01T06:22:55.208Z,97.10
2022-10-01T06:25:22.063Z,97.50
2022-10-01T06:27:55.347Z,97.10
2022-10-01T06:30:22.544Z,97.20
2022-10-01T06:32:49.273Z,97.20
2022-10-01T06:35:16.047Z,97.20
2022-10-01T06:37:42.691Z,97.30
2022-10-01T06:40:10.146Z,97.30
2022-10-01T06:42:36.841Z,97.40
2022-10-01T06:45:03.821Z,97.40
2022-10-01T06:47:30.510Z,97.40
2022-10-01T06:49:59.293Z,97.50
2022-10-01T06:52:44.350Z,97.50
2022-10-01T06:55:15.703Z,97.70
2022-10-01T06:57:43.305Z,97.50
2022-10-01T07:00:11.083Z,97.50
2022-10-01T07:02:38.286Z,97.60
2022-10-01T07:05:05.913Z,97.60
2022-10-01T07:07:35.241Z,97.60
2022-10-01T07:10:04.273Z,97.70
2022-10-01T07:12:30.969Z,97.80
2022-10-01T07:14:57.702Z,97.80
2022-10-01T07:17:24.630Z,97.80
2022-10-01T07:19:51.338Z,97.90
2022-10-01T07:22:19.331Z,98.00
2022-10-01T07:24:46.773Z,98.00
2022-10-01T07:27:14.376Z,98.00
2022-10-01T07:29:41.825Z,98.00
2022-10-01T07:32:10.375Z,98.00
2022-10-01T07:34:41.869Z,98.10
2022-10-01T07:37:09.262Z,98.10
2022-10-01T07:39:36.670Z,98.10
2022-10-01T07:42:03.911Z,98.20
2022-10-01T07:44:30.551Z,98.20
2022-10-01T07:46:57.538Z,98.60
2022-10-01T07:49:27.456Z,98.40
2022-10-01T07:51:54.678Z,98.40
2022-10-01T07:54:22.613Z,98.50
2022-10-01T07:56:52.844Z,98.40
2022-10-01T07:59:19.614Z,98.40
2022-10-01T08:01:51.626Z,98.40
2022-10-01T08:04:38.504Z,98.50
2022-10-01T08:07:05.931Z,98.50
2022-10-01T08:09:32.819Z,98.50
2022-10-01T08:11:59.566Z,98.40
2022-10-01T08:14:26.536Z,98.50
2022-10-01T08:16:55.672Z,98.50
2022-10-01T08:19:22.796Z,98.70
2022-10-01T08:21:49.481Z,98.70
2022-10-01T08:24:16.232Z,98.60
2022-10-01T08:26:42.901Z,98.70
2022-10-01T08:29:13.609Z,98.60
2022-10-01T08:31:43.031Z,98.70
2022-10-01T08:34:09.709Z,98.60
2022-10-01T08:36:37.736Z,98.50
2022-10-01T08:39:04.405Z,98.50
2022-10-01T08:41:42.363Z,98.50
2022-10-01T08:44:21.596Z,98.40
2022-10-01T08:46:50.152Z,98.20
2022-10-01T08:49:33.055Z,98.30
2022-10-01T08:52:03.603Z,98.10
2022-10-01T08:54:40.671Z,98.30
2022-10-01T08:57:14.341Z,98.40
2022-10-01T08:59:48.661Z,98.40
2022-10-01T09:02:22.276Z,98.30
2022-10-01T09:04:57.705Z,98.30
2022-10-01T09:07:37.634Z,98.40
2022-10-01T09:10:24.742Z,98.30
2022-10-01T09:13:07.999Z,98.00
2022-10-01T09:15:57.949Z,98.10
2022-10-01T09:18:53.414Z,98.20
2022-10-01T09:21:47.315Z,98.00
2022-10-01T09:24:42.343Z,97.60
2022-10-01T09:27:19.200Z,98.10
2022-10-01T09:29:49.207Z,98.60
2022-10-01T09:32:20.515Z,98.90
2022-10-01T09:34:47.671Z,98.90
2022-10-01T09:37:44.509Z,98.80
2022-10-01T09:40:34.165Z,97.50
2022-10-01T09:43:02.811Z,97.40
2022-10-01T09:45:29.671Z,97.40
2022-10-01T09:48:13.495Z,96.90
2022-10-01T09:50:44.106Z,96.30
2022-10-01T09:53:16.231Z,96.20
2022-10-01T09:55:47.840Z,95.80
2022-10-01T09:58:20.903Z,96.00
2022-10-01T10:00:51.386Z,95.40
2022-10-01T10:03:28.628Z,95.30
2022-10-01T10:05:56.455Z,94.90
2022-10-01T10:08:36.112Z,95.30
2022-10-01T10:11:06.549Z,94.80
2022-10-01T10:13:41.192Z,95.20
2022-10-01T10:16:26.456Z,95.10
2022-10-01T10:19:20.456Z,95.00
2022-10-01T10:21:56.592Z,94.90
2022-10-01T10:24:32.698Z,95.10
2022-10-01T10:27:02.873Z,95.00
2022-10-01T10:29:35.125Z,95.10
2022-10-01T10:32:22.227Z,94.90
2022-10-01T10:34:49.446Z,94.90
2022-10-01T10:37:19.056Z,95.00
2022-10-01T10:39:52.581Z,95.30
2022-10-01T10:42:19.787Z,94.80
2022-10-01T10:44:49.629Z,94.80
2022-10-01T10:47:19.066Z,94.70
2022-10-01T10:49:56.786Z,94.90
2022-10-01T10:52:33.749Z,95.20
2022-10-01T10:55:02.622Z,95.40
2022-10-01T10:57:33.386Z,95.50
2022-10-01T11:00:13.617Z,95.30
2022-10-01T11:02:48.179Z,95.30
2022-10-01T11:05:23.231Z,95.10
2022-10-01T11:07:55.476Z,95.00
2022-10-01T11:10:30.699Z,95.10
2022-10-01T11:13:19.059Z,94.90
2022-10-01T11:16:16.815Z,94.90
2022-10-01T11:19:02.362Z,94.60
2022-10-01T11:21:50.723Z,93.90
2022-10-01T11:24:54.861Z,93.50
2022-10-01T11:27:56.677Z,92.90
2022-10-01T11:30:45.029Z,92.60
2022-10-01T11:33:32.714Z,92.70
2022-10-01T11:36:15.042Z,92.50
2022-10-01T11:38:58.847Z,92.70
2022-10-01T11:41:34.822Z,92.30
2022-10-01T11:44:29.663Z,92.30
2022-10-01T11:47:16.635Z,92.20
2022-10-01T11:49:50.242Z,92.90
2022-10-01T11:52:28.610Z,93.30
2022-10-01T11:55:32.306Z,93.50
2022-10-01T11:58:49.987Z,93.40
2022-10-01T12:01:33.947Z,93.60
2022-10-01T12:04:14.583Z,93.60
2022-10-01T12:06:52.500Z,93.50
2022-10-01T12:09:27.997Z,93.50
2022-10-01T12:12:01.541Z,93.70
2022-10-01T12:14:37.553Z,93.50
2022-10-01T12:17:21.377Z,93.40
2022-10-01T12:19:51.769Z,93.10
2022-10-01T12:22:25.707Z,93.00
2022-10-01T12:24:53.666Z,92.60
2022-10-01T12:27:47.904Z,92.60
2022-10-01T12:30:23.077Z,91.90
2022-10-01T12:33:04.772Z,92.10
2022-10-01T12:35:37.250Z,92.10
2022-10-01T12:38:28.686Z,92.20
2022-10-01T12:41:11.332Z,91.40
2022-10-01T12:44:08.623Z,91.30
2022-10-01T12:47:13.827Z,91.70
2022-10-01T12:49:49.776Z,91.80
2022-10-01T12:52:50.594Z,92.50
2022-10-01T12:55:54.785Z,92.00
2022-10-01T12:58:33.574Z,92.40
2022-10-01T13:01:35.068Z,92.40
2022-10-01T13:04:39.276Z,92.40
2022-10-01T13:07:33.384Z,92.40
2022-10-01T13:10:14.500Z,92.60
2022-10-01T13:12:58.991Z,92.90
2022-10-01T13:15:47.030Z,92.90
2022-10-01T13:18:14.370Z,92.80
2022-10-01T13:20:54.009Z,93.00
2022-10-01T13:23:44.783Z,93.00
2022-10-01T13:26:17.439Z,93.30
2022-10-01T13:29:09.205Z,92.80
2022-10-01T13:31:52.019Z,92.40
2022-10-01T13:34:26.098Z,92.50
2022-10-01T13:36:52.780Z,92.40
2022-10-01T13:39:24.220Z,92.50
2022-10-01T13:41:57.293Z,92.20
2022-10-01T13:44:33.446Z,92.30
2022-10-01T13:47:09.896Z,92.20
2022-10-01T13:49:37.645Z,91.80
2022-10-01T13:52:05.838Z,91.90
2022-10-01T13:54:39.305Z,91.40
2022-10-01T13:57:28.772Z,90.70
2022-10-01T14:00:18.769Z,90.30
2022-10-01T14:02:57.770Z,90.20
2022-10-01T14:05:35.639Z,90.00
2022-10-01T14:08:13.899Z,90.30
2022-10-01T14:11:10.676Z,90.30
2022-10-01T14:14:07.219Z,90.10
2022-10-01T14:16:45.175Z,89.70
2022-10-01T14:19:19.804Z,89.50
2022-10-01T14:22:06.993Z,89.70
2022-10-01T14:24:50.405Z,89.60
2022-10-01T14:27:49.332Z,89.60
2022-10-01T14:30:20.462Z,88.20
2022-10-01T14:33:23.809Z,88.80
2022-10-01T14:36:10.308Z,86.80
2022-10-01T14:38:37.041Z,89.90
2022-10-01T14:41:03.700Z,90.20
2022-10-01T14:43:32.315Z,90.50
2022-10-01T14:46:12.406Z,90.00
2022-10-01T14:48:40.276Z,89.30
2022-10-01T14:51:25.374Z,90.30
2022-10-01T14:53:54.539Z,88.50
2022-10-01T14:56:22.412Z,89.50
2022-10-01T14:59:03.982Z,89.90
2022-10-01T15:01:30.731Z,89.00
2022-10-01T15:03:57.577Z,89.10
2022-10-01T15:06:29.960Z,89.30
2022-10-01T15:09:12.965Z,90.00
2022-10-01T15:11:44.447Z,88.30
2022-10-01T15:14:18.038Z,88.40
2022-10-01T15:16:45.071Z,87.10
2022-10-01T15:19:21.680Z,87.80
2022-10-01T15:21:57.315Z,86.40
2022-10-01T15:24:33.580Z,86.90
2022-10-01T15:27:01.635Z,87.50
2022-10-01T15:29:28.359Z,86.80
2022-10-01T15:31:57.645Z,86.00
2022-10-01T15:34:25.953Z,84.70
2022-10-01T15:36:53.631Z,84.90
2022-10-01T15:39:38.334Z,85.10
2022-10-01T15:42:20.415Z,83.50
2022-10-01T15:44:49.416Z,84.10
2022-10-01T15:47:38.029Z,85.10
2022-10-01T15:50:10.807Z,84.30
2022-10-01T15:53:06.055Z,84.70
2022-10-01T15:55:37.440Z,83.70
2022-10-01T15:58:11.082Z,84.60
2022-10-01T16:01:12.083Z,84.00
2022-10-01T16:03:49.300Z,83.60
2022-10-01T16:06:22.058Z,84.90
2022-10-01T16:09:11.785Z,84.80
2022-10-01T16:11:58.234Z,85.10
2022-10-01T16:14:37.117Z,84.70
2022-10-01T16:17:18.997Z,84.80
2022-10-01T16:19:51.263Z,85.40
2022-10-01T16:22:22.034Z,85.80
2022-10-01T16:24:57.513Z,86.10
2022-10-01T16:27:43.577Z,85.90
2022-10-01T16:30:18.123Z,85.60
2022-10-01T16:32:45.145Z,86.10
2022-10-01T16:35:16.031Z,86.60
2022-10-01T16:37:43.621Z,86.40
2022-10-01T16:40:15.793Z,86.80
2022-10-01T16:42:44.639Z,87.00
2022-10-01T16:45:16.789Z,87.20
2022-10-01T16:47:44.911Z,87.40
2022-10-01T16:50:13.593Z,87.90
2022-10-01T16:52:40.286Z,88.00
2022-10-01T16:55:36.319Z,88.40
2022-10-01T16:58:04.035Z,88.30
2022-10-01T17:00:31.331Z,88.60
2022-10-01T17:02:59.565Z,88.50
2022-10-01T17:05:31.938Z,88.30
2022-10-01T17:08:01.147Z,88.20
2022-10-01T17:10:30.856Z,88.30
2022-10-01T17:12:59.308Z,88.30
2022-10-01T17:15:27.772Z,88.30
2022-10-01T17:17:54.919Z,88.00
2022-10-01T17:20:23.079Z,88.10
2022-10-01T17:25:46.145Z,87.70
2022-10-01T17:28:16.003Z,88.00
2022-10-01T17:30:44.500Z,87.80
2022-10-01T17:33:13.610Z,87.50
2022-10-01T17:35:42.850Z,87.30
2022-10-01T17:38:10.168Z,87.00
2022-10-01T17:40:40.262Z,86.80
2022-10-01T17:43:06.986Z,86.10
2022-10-01T17:45:33.620Z,86.30
2022-10-01T17:48:01.011Z,86.40
2022-10-01T17:50:27.605Z,86.20
2022-10-01T17:52:54.407Z,86.00
2022-10-01T17:55:23.544Z,86.00
2022-10-01T17:57:50.931Z,87.00
2022-10-01T18:00:17.782Z,86.10
2022-10-01T18:02:44.548Z,86.10
2022-10-01T18:05:14.332Z,86.50
2022-10-01T18:07:42.106Z,86.50
2022-10-01T18:10:12.155Z,86.50
2022-10-01T18:12:39.064Z,86.30
2022-10-01T18:15:06.230Z,86.60
2022-10-01T18:17:33.616Z,86.70
2022-10-01T18:20:00.622Z,86.60
2022-10-01T18:22:28.142Z,86.80
2022-10-01T18:24:55.032Z,86.90
2022-10-01T18:27:21.959Z,87.40
2022-10-01T18:29:48.685Z,87.30
2022-10-01T18:32:22.451Z,87.40
2022-10-01T18:35:01.277Z,87.40
2022-10-01T18:37:37.670Z,87.50
2022-10-01T18:40:21.852Z,87.50
2022-10-01T18:43:09.501Z,87.60
2022-10-01T18:45:54.681Z,87.80
2022-10-01T18:48:39.467Z,88.00
2022-10-01T18:51:36.314Z,88.40
2022-10-01T18:54:09.148Z,88.50
2022-10-01T18:56:37.908Z,88.60
2022-10-01T18:59:35.596Z,88.80
2022-10-01T19:02:22.319Z,88.80
2022-10-01T19:05:17.776Z,88.80
2022-10-01T19:08:26.110Z,88.90
2022-10-01T19:11:06.727Z,89.00
2022-10-01T19:13:45.342Z,89.20
2022-10-01T19:16:24.413Z,89.30
2022-10-01T19:19:25.251Z,89.40
2022-10-01T19:22:10.790Z,89.50
2022-10-01T19:24:57.731Z,89.70
2022-10-01T19:28:02.346Z,90.00
2022-10-01T19:30:37.742Z,90.00
2022-10-01T19:33:13.229Z,90.00
2022-10-01T19:35:43.808Z,90.10
2022-10-01T19:38:40.924Z,90.20
2022-10-01T19:41:16.586Z,90.40
2022-10-01T19:44:02.407Z,90.50
2022-10-01T19:46:36.001Z,90.60
2022-10-01T19:49:09.066Z,90.80
2022-10-01T19:51:59.454Z,90.90
2022-10-01T19:54:36.303Z,91.00
2022-10-01T19:57:16.060Z,91.20
2022-10-01T19:59:42.797Z,91.30
2022-10-01T20:02:30.882Z,91.30
2022-10-01T20:05:12.488Z,91.60
2022-10-01T20:08:10.846Z,91.70
2022-10-01T20:10:47.507Z,91.80
2022-10-01T20:13:26.135Z,91.90
2022-10-01T20:16:07.530Z,92.00
2022-10-01T20:19:02.096Z,92.00
2022-10-01T20:21:54.785Z,92.20
2022-10-01T20:24:33.842Z,92.50
2022-10-01T20:27:22.372Z,92.40
2022-10-01T20:30:08.878Z,92.80
2022-10-01T20:32:48.206Z,92.90
2022-10-01T20:35:40.381Z,93.10
2022-10-01T20:38:14.793Z,93.20
2022-10-01T20:40:49.683Z,93.00
2022-10-01T20:43:26.739Z,93.00
2022-10-01T20:45:54.529Z,93.00
2022-10-01T20:48:36.311Z,92.90
2022-10-01T20:51:12.159Z,93.20
2022-10-01T20:54:05.545Z,93.20
2022-10-01T20:56:37.744Z,93.30
2022-10-01T20:59:21.301Z,93.10
2022-10-01T21:02:19.565Z,93.20
2022-10-01T21:05:00.408Z,93.30
2022-10-01T21:07:36.385Z,93.20
2022-10-01T21:10:14.496Z,93.20
2022-10-01T21:12:49.575Z,93.20
2022-10-01T21:15:16.236Z,93.20
2022-10-01T21:18:09.569Z,93.20
2022-10-01T21:20:49.426Z,93.30
2022-10-01T21:23:32.143Z,93.20
2022-10-01T21:26:07.500Z,93.10
2022-10-01T21:28:58.367Z,93.20
2022-10-01T21:31:40.223Z,93.30
2022-10-01T21:34:12.963Z,93.20
2022-10-01T21:36:53.693Z,93.20
2022-10-01T21:39:30.149Z,93.20
2022-10-01T21:42:08.691Z,93.20
2022-10-01T21:45:04.949Z,93.10
2022-10-01T21:48:11.182Z,93.30
2022-10-01T21:50:53.211Z,93.30
2022-10-01T21:53:32.166Z,93.30
2022-10-01T21:56:16.912Z,93.30
2022-10-01T21:59:06.942Z,93.40
2022-10-01T22:02:20.751Z,93.50
2022-10-01T22:04:52.347Z,93.50
2022-10-01T22:07:50.928Z,93.40
2022-10-01T22:10:27.382Z,93.60
2022-10-01T22:12:58.485Z,93.50
2022-10-01T22:15:35.684Z,93.50
2022-10-01T22:18:05.877Z,93.60
2022-10-01T22:20:37.710Z,93.70
2022-10-01T22:23:09.536Z,93.70
2022-10-01T22:25:44.683Z,93.80
2022-10-01T22:28:19.195Z,93.80
2022-10-01T22:30:47.967Z,93.80
2022-10-01T22:33:19.989Z,93.90
2022-10-01T22:36:18.146Z,93.90
2022-10-01T22:38:54.017Z,94.00
2022-10-01T22:41:33.168Z,94.00
2022-10-01T22:44:02.239Z,94.00
2022-10-01T22:46:46.028Z,94.00
2022-10-01T22:49:24.943Z,94.20
2022-10-01T22:51:57.775Z,94.30
2022-10-01T22:54:34.440Z,94.20
2022-10-01T22:57:11.902Z,94.20
2022-10-01T23:00:02.658Z,94.20
2022-10-01T23:02:52.521Z,94.40
2022-10-01T23:05:40.751Z,94.30
2022-10-01T23:08:16.666Z,94.40
2022-10-01T23:10:50.754Z,94.20
2022-10-01T23:13:26.460Z,94.30
2022-10-01T23:16:00.953Z,94.40
2022-10-01T23:18:50.010Z,94.40
2022-10-01T23:21:33.270Z,94.70
2022-10-01T23:24:19.910Z,94.50
2022-10-01T23:26:58.799Z,94.50
2022-10-01T23:29:54.378Z,94.50
2022-10-01T23:32:42.884Z,94.70
2022-10-01T23:35:55.690Z,94.80
2022-10-01T23:38:42.731Z,94.80
2022-10-01T23:41:18.679Z,94.80
2022-10-01T23:43:48.403Z,94.80
2022-10-01T23:46:23.543Z,94.90
2022-10-01T23:49:03.436Z,95.00
2022-10-01T23:51:39.654Z,95.00
2022-10-01T23:54:27.962Z,95.00
2022-10-01T23:57:16.099Z,95.00
2022-10-01T23:59:58.394Z,95.20
